Time;durP1;ratioP1;P1;durP2;ratioP2;P2;SDS_P1;SDS_P2;PMS_P1;PMS_P2;Temp;Humidity;BMP_temperature;BMP_pressure;BME280_temperature;BME280_humidity;BME280_pressure;Samples;Min_cycle;Max_cycle;Signal;HPM_P1;HPM_P2
2023/03/26 00:01:57;;;;;;;;;;;7.90;99.90;;;;;;5048029;28;19921;-60
2023/03/26 00:04:24;;;;;;;;;;;7.90;99.90;;;;;;5049449;28;19971;-60
2023/03/26 00:06:50;;;;;;;;;;;7.90;99.90;;;;;;5049486;28;19917;-59
2023/03/26 00:09:16;;;;;;;;;;;7.80;99.90;;;;;;5048384;28;19917;-59
2023/03/26 00:11:42;;;;;;;;;;;7.90;99.90;;;;;;5047229;28;19916;-60
2023/03/26 00:14:08;;;;;;;;;;;7.90;99.90;;;;;;5049564;28;20348;-60
2023/03/26 00:16:34;;;;;;;;;;;7.80;99.90;;;;;;5049350;28;19939;-60
2023/03/26 00:19:00;;;;;;;;;;;7.80;99.90;;;;;;5048323;28;20386;-60
2023/03/26 00:21:27;;;;;;;;;;;7.80;99.90;;;;;;5041698;28;20184;-59
2023/03/26 00:23:54;;;;;;;;;;;7.80;99.90;;;;;;5030512;28;19924;-60
2023/03/26 00:26:20;;;;;;;;;;;7.70;99.90;;;;;;5032817;28;19916;-58
2023/03/26 00:28:46;;;;;;;;;;;7.80;99.90;;;;;;5034130;28;20036;-60
2023/03/26 00:31:12;;;;;;;;;;;7.70;99.90;;;;;;5042115;28;20381;-60
2023/03/26 00:33:39;;;;;;;;;;;7.70;99.90;;;;;;5032986;28;19928;-60
2023/03/26 00:36:16;;;;;;;;;;;7.70;99.90;;;;;;5032821;28;19923;-58
2023/03/26 00:38:42;;;;;;;;;;;7.70;99.90;;;;;;5031861;28;19971;-60
2023/03/26 00:41:16;;;;;;;;;;;7.70;99.90;;;;;;5031959;28;19925;-60
2023/03/26 00:43:45;;;;;;;;;;;7.70;99.90;;;;;;5032756;28;20375;-60
2023/03/26 00:46:11;;;;;;;;;;;7.70;99.90;;;;;;5032572;28;19925;-60
2023/03/26 00:48:37;;;;;;;;;;;7.60;99.90;;;;;;5031968;28;19920;-59
2023/03/26 00:51:03;;;;;;;;;;;7.60;99.90;;;;;;5032171;28;19996;-60
2023/03/26 00:53:29;;;;;;;;;;;7.60;99.90;;;;;;5032960;28;19921;-59
2023/03/26 00:55:59;;;;;;;;;;;7.50;99.90;;;;;;5032330;28;19916;-60
2023/03/26 00:58:25;;;;;;;;;;;7.50;99.90;;;;;;5031931;28;19920;-59
2023/03/26 01:00:51;;;;;;;;;;;7.50;99.90;;;;;;5032400;28;19974;-60
2023/03/26 01:03:17;;;;;;;;;;;7.50;99.90;;;;;;5046395;28;19921;-59
2023/03/26 01:05:51;;;;;;;;;;;7.40;99.90;;;;;;5052334;28;19921;-59
2023/03/26 01:08:21;;;;;;;;;;;7.40;99.90;;;;;;5051107;28;19920;-59
2023/03/26 01:10:51;;;;;;;;;;;7.30;99.90;;;;;;5052252;28;20000;-60
2023/03/26 01:13:18;;;;;;;;;;;7.30;99.90;;;;;;5050507;28;19920;-59
2023/03/26 01:15:49;;;;;;;;;;;7.30;99.90;;;;;;5034302;28;19917;-60
2023/03/26 01:18:19;;;;;;;;;;;7.30;99.90;;;;;;5050539;28;20008;-60
2023/03/26 01:20:48;;;;;;;;;;;7.30;99.90;;;;;;5023824;28;19967;-60
2023/03/26 01:23:18;;;;;;;;;;;7.20;99.90;;;;;;5033119;28;19917;-59
2023/03/26 01:25:47;;;;;;;;;;;7.30;99.90;;;;;;5032022;28;19917;-59
2023/03/26 01:28:12;;;;;;;;;;;7.30;99.90;;;;;;5030881;28;19921;-60
2023/03/26 01:30:41;;;;;;;;;;;7.30;99.90;;;;;;5036518;28;19917;-60
2023/03/26 01:33:12;;;;;;;;;;;7.30;99.90;;;;;;5041807;28;19925;-60
2023/03/26 01:35:48;;;;;;;;;;;7.30;99.90;;;;;;5032367;28;19917;-60
2023/03/26 01:38:22;;;;;;;;;;;7.30;99.90;;;;;;5039252;28;19924;-60
2023/03/26 01:40:53;;;;;;;;;;;7.30;99.90;;;;;;5044740;28;20520;-59
2023/03/26 01:43:37;;;;;;;;;;;7.30;99.90;;;;;;5035830;28;19921;-59
2023/03/26 01:46:05;;;;;;;;;;;7.30;99.90;;;;;;5031968;28;20059;-60
2023/03/26 01:48:32;;;;;;;;;;;7.30;99.90;;;;;;5030921;28;20297;-58
2023/03/26 01:50:57;;;;;;;;;;;7.30;99.90;;;;;;5031265;28;19939;-59
2023/03/26 01:53:23;;;;;;;;;;;7.20;99.90;;;;;;5031391;28;20379;-60
2023/03/26 01:56:02;;;;;;;;;;;7.30;99.90;;;;;;5031043;28;19917;-60
2023/03/26 01:58:43;;;;;;;;;;;7.30;99.90;;;;;;5030330;28;20007;-59
2023/03/26 02:01:15;;;;;;;;;;;7.30;99.90;;;;;;5030808;28;19932;-58
2023/03/26 02:03:45;;;;;;;;;;;7.30;99.90;;;;;;5031237;28;19917;-60
2023/03/26 02:06:33;;;;;;;;;;;7.30;99.90;;;;;;5031210;28;20091;-59
2023/03/26 02:09:04;;;;;;;;;;;7.40;99.90;;;;;;5030151;28;19917;-59
2023/03/26 02:11:29;;;;;;;;;;;7.40;99.90;;;;;;5031236;28;19917;-59
2023/03/26 02:13:55;;;;;;;;;;;7.30;99.90;;;;;;5031061;28;19917;-60
2023/03/26 02:16:20;;;;;;;;;;;7.30;99.90;;;;;;5030983;28;19917;-60
2023/03/26 02:18:50;;;;;;;;;;;7.40;99.90;;;;;;5029561;28;19991;-60
2023/03/26 02:21:19;;;;;;;;;;;7.40;99.90;;;;;;5030469;28;19928;-60
2023/03/26 02:23:45;;;;;;;;;;;7.30;99.90;;;;;;5030840;28;19970;-60
2023/03/26 02:26:12;;;;;;;;;;;7.40;99.90;;;;;;5031101;28;19916;-60
2023/03/26 02:28:37;;;;;;;;;;;7.40;99.90;;;;;;5029750;28;20432;-60
2023/03/26 02:31:03;;;;;;;;;;;7.40;99.90;;;;;;5030305;28;20130;-60
2023/03/26 02:33:29;;;;;;;;;;;7.40;99.90;;;;;;5029971;28;19967;-59
2023/03/26 02:35:58;;;;;;;;;;;7.40;99.90;;;;;;5030993;28;19920;-59
2023/03/26 02:38:25;;;;;;;;;;;7.30;99.90;;;;;;5029822;28;19924;-60
2023/03/26 02:40:52;;;;;;;;;;;7.30;99.90;;;;;;5012481;28;20093;-59
2023/03/26 02:43:17;;;;;;;;;;;7.20;99.90;;;;;;5017204;28;20402;-60
2023/03/26 02:45:43;;;;;;;;;;;7.20;99.90;;;;;;5048393;28;19966;-59
2023/03/26 02:48:08;;;;;;;;;;;7.10;99.90;;;;;;5039528;28;19967;-60
2023/03/26 02:50:35;;;;;;;;;;;7.10;99.90;;;;;;5048244;28;19917;-59
2023/03/26 02:53:01;;;;;;;;;;;7.00;99.90;;;;;;5045721;28;19937;-60
2023/03/26 02:55:27;;;;;;;;;;;7.00;99.90;;;;;;5030780;28;19920;-60
2023/03/26 02:57:52;;;;;;;;;;;6.90;99.90;;;;;;5032136;28;19932;-60
2023/03/26 03:00:20;;;;;;;;;;;6.90;99.90;;;;;;5037578;28;20027;-59
2023/03/26 03:02:48;;;;;;;;;;;6.80;99.90;;;;;;5012726;28;19975;-60
2023/03/26 03:05:16;;;;;;;;;;;6.90;99.90;;;;;;5031057;28;20397;-60
2023/03/26 03:07:45;;;;;;;;;;;6.80;99.90;;;;;;5029384;28;19921;-60
2023/03/26 03:10:12;;;;;;;;;;;6.80;99.90;;;;;;5029646;28;19951;-60
2023/03/26 03:12:41;;;;;;;;;;;6.80;99.90;;;;;;5030247;28;19916;-60
2023/03/26 03:15:07;;;;;;;;;;;6.80;99.90;;;;;;5043955;28;19920;-60
2023/03/26 03:17:32;;;;;;;;;;;6.80;99.90;;;;;;5048757;28;19920;-60
2023/03/26 03:19:58;;;;;;;;;;;6.80;99.90;;;;;;5049285;28;19920;-60
2023/03/26 03:22:23;;;;;;;;;;;6.80;99.90;;;;;;5049494;28;19920;-60
2023/03/26 03:24:50;;;;;;;;;;;6.80;99.90;;;;;;5049736;28;19917;-58
2023/03/26 03:27:18;;;;;;;;;;;6.80;99.90;;;;;;5032103;28;19923;-60
2023/03/26 03:29:43;;;;;;;;;;;6.80;99.90;;;;;;5030042;28;19970;-60
2023/03/26 03:32:09;;;;;;;;;;;6.80;99.90;;;;;;5049650;28;19917;-60
2023/03/26 03:34:37;;;;;;;;;;;6.80;99.90;;;;;;5049482;28;19917;-60
2023/03/26 03:37:03;;;;;;;;;;;6.80;99.90;;;;;;5047960;28;20378;-60
2023/03/26 03:39:29;;;;;;;;;;;6.90;99.90;;;;;;5047994;28;19923;-60
2023/03/26 03:41:54;;;;;;;;;;;6.80;99.90;;;;;;5049632;28;19920;-60
2023/03/26 03:44:20;;;;;;;;;;;6.80;99.90;;;;;;5048883;28;20015;-60
2023/03/26 03:46:47;;;;;;;;;;;6.70;99.90;;;;;;5049599;28;19986;-60
2023/03/26 03:49:13;;;;;;;;;;;6.70;99.90;;;;;;5048245;28;19985;-60
2023/03/26 03:51:39;;;;;;;;;;;6.70;99.90;;;;;;5032000;28;20381;-59
2023/03/26 03:54:05;;;;;;;;;;;6.60;99.90;;;;;;5048858;28;19917;-60
2023/03/26 03:56:31;;;;;;;;;;;6.60;99.90;;;;;;5037376;28;19924;-59
2023/03/26 03:58:57;;;;;;;;;;;6.60;99.90;;;;;;5039313;28;19924;-59
2023/03/26 04:01:22;;;;;;;;;;;6.60;99.90;;;;;;5047702;28;19921;-59
2023/03/26 04:03:48;;;;;;;;;;;6.60;99.90;;;;;;5037316;28;19916;-58
2023/03/26 04:06:17;;;;;;;;;;;6.50;99.90;;;;;;5052292;28;19917;-60
2023/03/26 04:08:46;;;;;;;;;;;6.50;99.90;;;;;;5044739;28;20381;-60
2023/03/26 04:11:12;;;;;;;;;;;6.40;99.90;;;;;;5052157;28;19917;-59
2023/03/26 04:13:38;;;;;;;;;;;6.40;99.90;;;;;;5053157;28;19927;-61
2023/03/26 04:16:03;;;;;;;;;;;6.50;99.90;;;;;;5053006;28;19991;-60
2023/03/26 04:18:31;;;;;;;;;;;6.40;99.90;;;;;;5050562;28;19917;-60
2023/03/26 04:21:01;;;;;;;;;;;6.50;99.90;;;;;;5052576;28;19947;-60
2023/03/26 04:23:28;;;;;;;;;;;6.50;99.90;;;;;;5052682;28;19974;-59
2023/03/26 04:25:54;;;;;;;;;;;6.50;99.90;;;;;;5052293;28;20330;-60
2023/03/26 04:28:29;;;;;;;;;;;6.50;99.90;;;;;;5052243;28;20445;-60
2023/03/26 04:30:56;;;;;;;;;;;6.50;99.90;;;;;;5051105;28;19996;-60
2023/03/26 04:33:23;;;;;;;;;;;6.50;99.90;;;;;;5052904;28;19917;-59
2023/03/26 04:35:49;;;;;;;;;;;6.50;99.90;;;;;;5034423;28;19917;-59
2023/03/26 04:38:16;;;;;;;;;;;6.50;99.90;;;;;;5051900;28;19971;-60
2023/03/26 04:40:46;;;;;;;;;;;6.50;99.90;;;;;;5050270;28;20405;-60
2023/03/26 04:43:16;;;;;;;;;;;6.50;99.90;;;;;;5052688;28;19917;-59
2023/03/26 04:45:44;;;;;;;;;;;6.60;99.90;;;;;;5052628;28;20006;-60
2023/03/26 04:48:13;;;;;;;;;;;6.60;99.90;;;;;;5051459;28;20420;-59
2023/03/26 04:50:42;;;;;;;;;;;6.60;99.90;;;;;;5043784;28;19917;-59
2023/03/26 04:53:12;;;;;;;;;;;6.60;99.90;;;;;;5044029;28;19982;-60
2023/03/26 04:55:41;;;;;;;;;;;6.60;99.90;;;;;;5051860;28;19917;-60
2023/03/26 04:58:08;;;;;;;;;;;6.70;99.90;;;;;;5050909;28;19973;-59
2023/03/26 05:00:33;;;;;;;;;;;6.70;99.90;;;;;;5051716;28;20007;-60
2023/03/26 05:03:00;;;;;;;;;;;6.70;99.90;;;;;;5051925;28;20067;-60
2023/03/26 05:05:27;;;;;;;;;;;6.80;99.90;;;;;;5051805;28;19924;-58
2023/03/26 05:07:52;;;;;;;;;;;6.70;99.90;;;;;;5046717;28;19944;-60
2023/03/26 05:10:19;;;;;;;;;;;6.80;99.90;;;;;;5033482;28;20394;-60
2023/03/26 05:12:44;;;;;;;;;;;6.80;99.90;;;;;;5043232;28;19917;-59
2023/03/26 05:15:11;;;;;;;;;;;6.80;99.90;;;;;;5047704;28;19924;-60
2023/03/26 05:17:40;;;;;;;;;;;6.80;99.90;;;;;;5050881;28;19920;-60
2023/03/26 05:20:15;;;;;;;;;;;6.90;99.90;;;;;;5033110;28;19916;-60
2023/03/26 05:22:41;;;;;;;;;;;6.90;99.90;;;;;;5050340;28;19921;-60
2023/03/26 05:25:07;;;;;;;;;;;6.90;99.90;;;;;;5052159;28;20011;-59
2023/03/26 05:27:33;;;;;;;;;;;6.90;99.90;;;;;;5050927;28;20023;-59
2023/03/26 05:30:02;;;;;;;;;;;7.00;99.90;;;;;;5051479;28;20214;-60
2023/03/26 05:32:29;;;;;;;;;;;7.00;99.90;;;;;;5051116;28;20008;-60
2023/03/26 05:34:55;;;;;;;;;;;7.00;99.90;;;;;;5022255;28;20334;-59
2023/03/26 05:37:23;;;;;;;;;;;7.00;99.90;;;;;;5031752;28;19979;-60
2023/03/26 05:39:53;;;;;;;;;;;7.00;99.90;;;;;;5031261;28;19971;-60
2023/03/26 05:42:18;;;;;;;;;;;7.00;99.90;;;;;;5056007;28;19927;-59
2023/03/26 05:44:44;;;;;;;;;;;7.00;99.90;;;;;;5057733;28;19921;-59
2023/03/26 05:47:09;;;;;;;;;;;7.00;99.90;;;;;;5058350;28;19959;-60
2023/03/26 05:49:35;;;;;;;;;;;7.00;99.90;;;;;;5070387;28;20361;-60
2023/03/26 05:52:00;;;;;;;;;;;7.10;99.90;;;;;;5052256;28;19999;-60
2023/03/26 05:54:26;;;;;;;;;;;7.10;99.90;;;;;;5049658;28;19974;-59
2023/03/26 05:56:51;;;;;;;;;;;7.10;99.90;;;;;;5051012;28;19924;-60
2023/03/26 05:59:17;;;;;;;;;;;7.10;99.90;;;;;;5050049;28;20453;-60
2023/03/26 06:01:43;;;;;;;;;;;7.10;99.90;;;;;;5050488;28;19920;-59
2023/03/26 06:04:12;;;;;;;;;;;7.10;99.90;;;;;;5050835;28;20365;-60
2023/03/26 06:06:38;;;;;;;;;;;7.10;99.90;;;;;;5051015;28;19925;-60
2023/03/26 06:09:03;;;;;;;;;;;7.20;99.90;;;;;;5031922;28;19977;-59
2023/03/26 06:11:30;;;;;;;;;;;7.10;99.90;;;;;;5032756;28;19916;-60
2023/03/26 06:13:56;;;;;;;;;;;7.20;99.90;;;;;;5050564;28;19916;-60
2023/03/26 06:16:21;;;;;;;;;;;7.20;99.90;;;;;;5050475;28;20370;-60
2023/03/26 06:18:49;;;;;;;;;;;7.20;99.90;;;;;;5049597;28;20220;-59
2023/03/26 06:21:14;;;;;;;;;;;7.20;99.90;;;;;;5050279;28;20417;-59
2023/03/26 06:23:40;;;;;;;;;;;7.20;99.90;;;;;;5050463;28;19963;-59
2023/03/26 06:26:05;;;;;;;;;;;7.30;99.90;;;;;;5050659;28;19923;-60
2023/03/26 06:28:31;;;;;;;;;;;7.30;99.90;;;;;;5049409;28;20382;-60
2023/03/26 06:30:57;;;;;;;;;;;7.30;99.90;;;;;;5049551;28;20304;-60
2023/03/26 06:33:23;;;;;;;;;;;7.30;99.90;;;;;;5050586;28;19916;-60
2023/03/26 06:35:49;;;;;;;;;;;7.40;99.90;;;;;;5049009;28;20286;-58
2023/03/26 06:38:14;;;;;;;;;;;7.40;99.90;;;;;;5049893;28;20421;-60
2023/03/26 06:40:40;;;;;;;;;;;7.40;99.90;;;;;;5049978;28;20029;-60
2023/03/26 06:43:05;;;;;;;;;;;7.50;99.90;;;;;;5050329;28;19923;-60
2023/03/26 06:45:31;;;;;;;;;;;7.50;99.90;;;;;;5048580;28;20444;-59
2023/03/26 06:47:57;;;;;;;;;;;7.50;99.90;;;;;;5049338;28;19924;-60
2023/03/26 06:50:22;;;;;;;;;;;7.50;99.90;;;;;;5050133;28;19916;-60
2023/03/26 06:52:49;;;;;;;;;;;7.50;99.90;;;;;;5050173;28;19923;-60
2023/03/26 06:55:15;;;;;;;;;;;7.50;99.90;;;;;;5034124;28;19917;-60
2023/03/26 06:57:44;;;;;;;;;;;7.60;99.90;;;;;;5044737;28;19924;-60
2023/03/26 07:00:10;;;;;;;;;;;7.60;99.90;;;;;;5049447;28;19916;-61
2023/03/26 07:02:35;;;;;;;;;;;7.60;99.90;;;;;;5049820;28;19935;-58
2023/03/26 07:05:01;;;;;;;;;;;7.60;99.90;;;;;;5050108;28;20271;-60
2023/03/26 07:07:26;;;;;;;;;;;7.60;99.90;;;;;;5048832;28;19970;-60
2023/03/26 07:09:52;;;;;;;;;;;7.70;99.90;;;;;;5049514;28;19927;-59
2023/03/26 07:12:17;;;;;;;;;;;7.70;99.90;;;;;;5050128;28;19917;-59
2023/03/26 07:14:43;;;;;;;;;;;7.70;99.90;;;;;;5049447;28;19943;-59
2023/03/26 07:17:09;;;;;;;;;;;7.80;99.90;;;;;;5046224;28;19940;-59
2023/03/26 07:19:34;;;;;;;;;;;7.80;99.90;;;;;;5042265;28;19917;-59
2023/03/26 07:22:00;;;;;;;;;;;7.90;99.90;;;;;;5032976;28;19928;-60
2023/03/26 07:24:26;;;;;;;;;;;7.90;99.90;;;;;;5030063;28;19917;-59
2023/03/26 07:27:08;;;;;;;;;;;7.90;99.90;;;;;;5034607;28;19924;-60
2023/03/26 07:29:36;;;;;;;;;;;8.00;99.90;;;;;;5029225;28;19921;-60
2023/03/26 07:32:12;;;;;;;;;;;8.00;99.90;;;;;;5029772;28;20396;-59
2023/03/26 07:34:47;;;;;;;;;;;8.00;99.90;;;;;;5029951;28;19917;-60
2023/03/26 07:37:15;;;;;;;;;;;8.10;99.90;;;;;;5030786;28;19917;-59
2023/03/26 07:40:00;;;;;;;;;;;8.10;99.90;;;;;;5049160;28;19924;-60
2023/03/26 07:42:37;;;;;;;;;;;8.10;99.90;;;;;;5053871;28;19928;-59
2023/03/26 07:45:11;;;;;;;;;;;8.10;99.90;;;;;;5052943;28;20408;-59
2023/03/26 07:47:38;;;;;;;;;;;8.20;99.90;;;;;;5043635;28;19924;-60
2023/03/26 07:50:05;;;;;;;;;;;8.20;99.90;;;;;;5050485;28;20012;-59
2023/03/26 07:52:30;;;;;;;;;;;8.20;99.90;;;;;;5049320;28;19917;-60
2023/03/26 07:54:56;;;;;;;;;;;8.20;99.90;;;;;;5037316;28;19928;-59
2023/03/26 07:57:24;;;;;;;;;;;8.20;99.90;;;;;;5033433;28;19923;-59
2023/03/26 07:59:54;;;;;;;;;;;8.30;99.90;;;;;;5048392;28;19924;-60
2023/03/26 08:02:26;;;;;;;;;;;8.30;99.90;;;;;;5052937;28;19921;-59
2023/03/26 08:04:57;;;;;;;;;;;8.30;99.90;;;;;;5048283;28;19928;-60
2023/03/26 08:07:25;;;;;;;;;;;8.30;99.90;;;;;;5053219;28;19960;-60
2023/03/26 08:09:51;;;;;;;;;;;8.40;99.90;;;;;;5039052;28;19916;-59
2023/03/26 08:12:21;;;;;;;;;;;8.40;99.90;;;;;;5033305;28;19921;-59
2023/03/26 08:14:53;;;;;;;;;;;8.40;99.90;;;;;;5016668;28;19920;-60
2023/03/26 08:17:27;;;;;;;;;;;8.50;99.90;;;;;;5032510;28;19921;-61
2023/03/26 08:20:09;;;;;;;;;;;8.50;99.90;;;;;;5042258;28;20014;-59
2023/03/26 08:22:37;;;;;;;;;;;8.60;99.90;;;;;;5051955;28;19920;-60
2023/03/26 08:25:08;;;;;;;;;;;8.60;99.90;;;;;;5049415;28;19924;-59
2023/03/26 08:27:38;;;;;;;;;;;8.60;99.90;;;;;;5031747;28;19917;-60
2023/03/26 08:30:16;;;;;;;;;;;8.60;99.90;;;;;;5038588;28;19946;-60
2023/03/26 08:32:44;;;;;;;;;;;8.70;99.90;;;;;;5032887;28;20059;-60
2023/03/26 08:35:10;;;;;;;;;;;8.80;99.90;;;;;;5048245;28;19970;-59
2023/03/26 08:37:36;;;;;;;;;;;8.80;99.90;;;;;;5051971;28;19921;-60
2023/03/26 08:40:02;;;;;;;;;;;8.80;99.90;;;;;;5035020;28;19925;-60
2023/03/26 08:42:36;;;;;;;;;;;8.80;99.90;;;;;;5015146;28;19924;-60
2023/03/26 08:45:14;;;;;;;;;;;8.80;99.90;;;;;;5044965;28;19926;-60
2023/03/26 08:47:54;;;;;;;;;;;8.80;99.90;;;;;;5051751;28;19987;-60
2023/03/26 08:50:20;;;;;;;;;;;8.80;99.90;;;;;;5047578;28;19925;-61
2023/03/26 08:53:04;;;;;;;;;;;8.80;99.90;;;;;;5052044;28;19927;-60
2023/03/26 08:55:49;;;;;;;;;;;8.80;99.90;;;;;;5046222;28;20336;-60
2023/03/26 08:58:33;;;;;;;;;;;8.80;99.90;;;;;;5051467;28;19971;-61
2023/03/26 09:00:59;;;;;;;;;;;8.70;99.90;;;;;;5031340;28;19925;-61
2023/03/26 09:03:43;;;;;;;;;;;8.70;99.90;;;;;;5032568;28;19924;-60
2023/03/26 09:06:27;;;;;;;;;;;8.60;99.90;;;;;;5044956;28;19975;-59
2023/03/26 09:08:55;;;;;;;;;;;8.70;99.90;;;;;;5032291;28;19917;-58
2023/03/26 09:11:34;;;;;;;;;;;8.70;99.90;;;;;;5033185;28;20190;-59
2023/03/26 09:14:00;;;;;;;;;;;8.70;99.90;;;;;;5037607;28;19956;-58
2023/03/26 09:16:44;;;;;;;;;;;8.80;99.90;;;;;;5050018;28;20365;-58
2023/03/26 09:19:19;;;;;;;;;;;8.80;99.90;;;;;;5044134;28;19916;-59
2023/03/26 09:21:47;;;;;;;;;;;8.80;99.90;;;;;;5050740;28;19955;-59
2023/03/26 09:24:26;;;;;;;;;;;8.90;99.90;;;;;;5042079;28;19916;-58
2023/03/26 09:27:14;;;;;;;;;;;8.90;99.90;;;;;;5040340;28;19923;-59
2023/03/26 09:29:40;;;;;;;;;;;9.00;99.90;;;;;;5033575;28;19968;-58
2023/03/26 09:32:26;;;;;;;;;;;9.00;99.90;;;;;;5032387;28;20413;-58
2023/03/26 09:34:54;;;;;;;;;;;9.10;99.90;;;;;;4995170;28;19917;-57
2023/03/26 09:37:25;;;;;;;;;;;9.10;99.90;;;;;;5032807;28;20290;-57
2023/03/26 09:39:54;;;;;;;;;;;9.20;99.90;;;;;;5020992;28;19924;-58
2023/03/26 09:42:25;;;;;;;;;;;9.20;99.90;;;;;;5041520;28;20439;-58
2023/03/26 09:44:56;;;;;;;;;;;9.20;99.90;;;;;;5038566;28;19944;-58
2023/03/26 09:47:41;;;;;;;;;;;9.30;99.90;;;;;;5029537;28;19917;-58
2023/03/26 09:50:26;;;;;;;;;;;9.40;99.90;;;;;;5039557;28;19916;-57
2023/03/26 09:53:06;;;;;;;;;;;9.50;99.90;;;;;;5045263;28;19924;-58
2023/03/26 09:55:39;;;;;;;;;;;9.60;99.90;;;;;;5049120;28;19924;-59
2023/03/26 09:58:07;;;;;;;;;;;9.70;99.90;;;;;;5033966;28;19940;-59
2023/03/26 10:00:33;;;;;;;;;;;9.80;99.90;;;;;;5039390;28;19917;-59
2023/03/26 10:03:17;;;;;;;;;;;9.90;99.90;;;;;;5031865;28;20334;-58
2023/03/26 10:05:48;;;;;;;;;;;10.00;99.90;;;;;;5042696;28;19917;-59
2023/03/26 10:08:20;;;;;;;;;;;10.10;99.90;;;;;;5050362;28;19939;-59
2023/03/26 10:10:51;;;;;;;;;;;10.20;99.90;;;;;;5037784;28;19960;-59
2023/03/26 10:13:46;;;;;;;;;;;10.20;99.90;;;;;;5031100;28;20313;-60
2023/03/26 10:16:19;;;;;;;;;;;10.30;99.90;;;;;;5031110;28;19955;-59
2023/03/26 10:18:57;;;;;;;;;;;10.40;99.90;;;;;;5030281;28;19940;-60
2023/03/26 10:21:37;;;;;;;;;;;10.50;99.90;;;;;;5040031;28;19927;-60
2023/03/26 10:24:09;;;;;;;;;;;10.50;99.90;;;;;;5050441;28;19920;-59
2023/03/26 10:26:46;;;;;;;;;;;10.50;99.90;;;;;;5043399;28;20031;-59
2023/03/26 10:29:38;;;;;;;;;;;10.60;99.90;;;;;;5049365;28;19917;-59
2023/03/26 10:32:16;;;;;;;;;;;10.60;99.90;;;;;;5018589;28;20459;-60
2023/03/26 10:34:45;;;;;;;;;;;10.60;99.90;;;;;;5031458;28;20383;-59
2023/03/26 10:37:29;;;;;;;;;;;10.60;99.90;;;;;;5050429;28;19916;-59
2023/03/26 10:40:14;;;;;;;;;;;10.60;99.90;;;;;;5048372;28;20314;-59
2023/03/26 10:42:49;;;;;;;;;;;10.60;99.90;;;;;;5015203;28;19921;-60
2023/03/26 10:45:23;;;;;;;;;;;10.70;99.90;;;;;;5016085;28;19920;-60
2023/03/26 10:48:12;;;;;;;;;;;10.70;99.90;;;;;;5049018;28;19928;-59
2023/03/26 10:50:51;;;;;;;;;;;10.70;99.90;;;;;;5009841;28;19920;-60
2023/03/26 10:53:19;;;;;;;;;;;10.70;99.90;;;;;;5042421;28;19982;-58
2023/03/26 10:55:49;;;;;;;;;;;10.70;99.90;;;;;;5047819;28;19981;-59
2023/03/26 10:58:18;;;;;;;;;;;10.70;99.90;;;;;;5029622;28;19967;-59
2023/03/26 11:00:48;;;;;;;;;;;10.70;99.90;;;;;;5030768;28;19921;-58
2023/03/26 11:03:25;;;;;;;;;;;10.80;99.90;;;;;;5048666;28;20011;-59
2023/03/26 11:05:56;;;;;;;;;;;10.80;99.90;;;;;;5042850;28;20382;-59
2023/03/26 11:08:36;;;;;;;;;;;10.80;99.90;;;;;;5047886;28;20032;-59
2023/03/26 11:11:05;;;;;;;;;;;10.80;99.90;;;;;;5047941;28;20402;-58
2023/03/26 11:13:31;;;;;;;;;;;10.80;99.90;;;;;;5037684;28;20390;-58
2023/03/26 11:16:01;;;;;;;;;;;10.80;99.90;;;;;;5042848;28;19921;-58
2023/03/26 11:18:29;;;;;;;;;;;10.80;99.90;;;;;;5036455;28;19943;-59
2023/03/26 11:21:00;;;;;;;;;;;10.80;99.90;;;;;;5030359;28;20360;-58
2023/03/26 11:23:55;;;;;;;;;;;10.80;99.90;;;;;;5047699;28;19952;-57
2023/03/26 11:26:30;;;;;;;;;;;10.80;99.90;;;;;;5022441;28;19917;-59
2023/03/26 11:29:04;;;;;;;;;;;10.70;99.90;;;;;;5028486;28;19923;-59
2023/03/26 11:31:53;;;;;;;;;;;10.70;99.90;;;;;;5032259;28;20047;-59
2023/03/26 11:34:20;;;;;;;;;;;10.70;99.90;;;;;;5011482;28;20370;-59
2023/03/26 11:36:48;;;;;;;;;;;10.60;99.90;;;;;;5046084;28;20539;-59
2023/03/26 11:39:20;;;;;;;;;;;10.70;99.90;;;;;;5048029;28;19969;-58
2023/03/26 11:41:46;;;;;;;;;;;10.70;99.90;;;;;;5046229;28;19921;-59
2023/03/26 11:44:20;;;;;;;;;;;10.70;99.90;;;;;;5031093;28;19917;-59
2023/03/26 11:46:47;;;;;;;;;;;10.80;99.90;;;;;;5040640;28;20520;-58
2023/03/26 11:49:15;;;;;;;;;;;10.80;99.90;;;;;;5048297;28;19943;-58
2023/03/26 11:51:41;;;;;;;;;;;10.90;99.90;;;;;;5047411;28;19924;-59
2023/03/26 11:54:09;;;;;;;;;;;10.90;99.90;;;;;;5029805;28;20317;-59
2023/03/26 11:56:52;;;;;;;;;;;11.00;99.90;;;;;;5040278;28;20382;-59
2023/03/26 11:59:29;;;;;;;;;;;11.00;99.90;;;;;;5010637;28;19928;-59
2023/03/26 12:01:56;;;;;;;;;;;11.10;99.90;;;;;;5013567;28;20337;-59
2023/03/26 12:04:27;;;;;;;;;;;11.20;99.90;;;;;;5048599;28;20011;-59
2023/03/26 12:06:56;;;;;;;;;;;11.20;99.90;;;;;;5038461;28;19921;-57
2023/03/26 12:09:22;;;;;;;;;;;11.20;99.90;;;;;;5047962;28;20348;-59
2023/03/26 12:11:48;;;;;;;;;;;11.20;99.90;;;;;;5048159;28;20450;-59
2023/03/26 12:14:19;;;;;;;;;;;11.20;99.90;;;;;;5049210;28;19967;-60
2023/03/26 12:16:56;;;;;;;;;;;11.10;99.90;;;;;;5044816;28;19921;-59
2023/03/26 12:19:23;;;;;;;;;;;11.10;99.90;;;;;;5037717;28;19925;-59
2023/03/26 12:21:50;;;;;;;;;;;11.20;99.90;;;;;;5021128;28;19928;-60
2023/03/26 12:24:28;;;;;;;;;;;11.20;99.90;;;;;;5037517;28;19978;-60
2023/03/26 12:27:12;;;;;;;;;;;11.30;99.90;;;;;;5041438;28;19969;-60
2023/03/26 12:29:37;;;;;;;;;;;11.30;99.90;;;;;;5051492;28;19982;-60
2023/03/26 12:32:12;;;;;;;;;;;11.30;99.90;;;;;;5041622;28;19920;-60
2023/03/26 12:34:38;;;;;;;;;;;11.40;99.90;;;;;;5023692;28;19923;-60
2023/03/26 12:37:05;;;;;;;;;;;11.50;99.90;;;;;;5041363;28;20007;-59
2023/03/26 12:39:38;;;;;;;;;;;11.60;99.90;;;;;;5041667;28;19923;-59
2023/03/26 12:42:13;;;;;;;;;;;11.70;99.90;;;;;;5050004;28;19928;-59
2023/03/26 12:44:48;;;;;;;;;;;11.80;99.90;;;;;;5043650;28;19917;-59
2023/03/26 12:47:23;;;;;;;;;;;11.80;99.90;;;;;;5034631;28;20394;-61
2023/03/26 12:49:51;;;;;;;;;;;11.80;99.90;;;;;;5041552;28;19916;-60
2023/03/26 12:52:37;;;;;;;;;;;11.90;99.90;;;;;;5017943;28;19936;-59
2023/03/26 12:55:12;;;;;;;;;;;11.80;99.90;;;;;;5052076;28;19968;-60
2023/03/26 12:57:45;;;;;;;;;;;11.70;99.90;;;;;;5038977;28;19932;-60
2023/03/26 13:00:12;;;;;;;;;;;11.70;99.90;;;;;;5041579;28;19921;-60
2023/03/26 13:02:37;;;;;;;;;;;11.60;99.90;;;;;;5036237;28;20015;-60
2023/03/26 13:05:13;;;;;;;;;;;11.70;99.90;;;;;;5043694;28;20076;-59
2023/03/26 13:07:50;;;;;;;;;;;11.70;99.90;;;;;;5035775;28;19921;-60
2023/03/26 13:10:24;;;;;;;;;;;11.70;99.90;;;;;;5048572;28;19948;-61
2023/03/26 13:13:12;;;;;;;;;;;11.80;99.90;;;;;;5032997;28;20429;-61
2023/03/26 13:15:43;;;;;;;;;;;11.80;99.90;;;;;;5035574;28;19979;-59
2023/03/26 13:18:11;;;;;;;;;;;11.80;99.90;;;;;;5039979;28;19956;-61
2023/03/26 13:20:42;;;;;;;;;;;11.80;99.90;;;;;;5052132;28;20225;-60
2023/03/26 13:23:26;;;;;;;;;;;11.80;99.90;;;;;;5045671;28;19932;-61
2023/03/26 13:26:14;;;;;;;;;;;11.70;99.90;;;;;;5032464;28;19917;-61
2023/03/26 13:28:53;;;;;;;;;;;11.60;99.90;;;;;;5038526;28;20007;-61
2023/03/26 13:31:18;;;;;;;;;;;11.50;99.90;;;;;;5051491;28;19995;-60
2023/03/26 13:33:47;;;;;;;;;;;11.50;99.90;;;;;;5049476;28;20359;-59
2023/03/26 13:36:19;;;;;;;;;;;11.30;99.90;;;;;;5051887;28;19921;-60
2023/03/26 13:38:53;;;;;;;;;;;11.20;99.90;;;;;;5044736;28;20031;-61
2023/03/26 13:41:25;;;;;;;;;;;11.20;99.90;;;;;;5044695;28;20274;-60
2023/03/26 13:43:56;;;;;;;;;;;11.00;99.90;;;;;;5050088;28;19920;-61
2023/03/26 13:46:25;;;;;;;;;;;11.00;99.90;;;;;;5039306;28;19916;-60
2023/03/26 13:48:53;;;;;;;;;;;11.00;99.90;;;;;;5038481;28;19962;-59
2023/03/26 13:51:22;;;;;;;;;;;10.90;99.90;;;;;;5050870;28;19917;-60
2023/03/26 13:53:59;;;;;;;;;;;10.80;99.90;;;;;;5043176;28;20374;-60
2023/03/26 13:56:29;;;;;;;;;;;10.80;99.90;;;;;;5031593;28;19924;-60
2023/03/26 13:58:59;;;;;;;;;;;10.70;99.90;;;;;;5036727;28;19917;-61
2023/03/26 14:01:33;;;;;;;;;;;10.60;99.90;;;;;;5051126;28;19974;-61
2023/03/26 14:04:18;;;;;;;;;;;10.60;99.90;;;;;;5042363;28;19928;-60
2023/03/26 14:06:52;;;;;;;;;;;10.50;99.90;;;;;;5031163;28;19916;-60
2023/03/26 14:09:30;;;;;;;;;;;10.50;99.90;;;;;;5033881;28;19956;-60
2023/03/26 14:11:56;;;;;;;;;;;10.40;99.90;;;;;;5035997;28;19968;-60
2023/03/26 14:14:36;;;;;;;;;;;10.30;99.90;;;;;;5039554;28;19960;-60
2023/03/26 14:17:05;;;;;;;;;;;10.30;99.90;;;;;;5050941;28;19923;-61
2023/03/26 14:19:30;;;;;;;;;;;10.30;99.90;;;;;;5046912;28;20011;-60
2023/03/26 14:21:56;;;;;;;;;;;10.30;99.90;;;;;;5030325;28;20024;-60
2023/03/26 14:24:22;;;;;;;;;;;10.20;99.90;;;;;;5041153;28;19970;-60
2023/03/26 14:26:47;;;;;;;;;;;10.20;99.90;;;;;;5048909;28;19936;-60
2023/03/26 14:29:16;;;;;;;;;;;10.30;99.90;;;;;;5037752;28;19925;-59
2023/03/26 14:31:45;;;;;;;;;;;10.30;99.90;;;;;;5044342;28;19916;-60
2023/03/26 14:34:21;;;;;;;;;;;10.30;99.90;;;;;;5040699;28;19916;-59
2023/03/26 14:36:57;;;;;;;;;;;10.30;99.90;;;;;;5033962;28;20306;-60
2023/03/26 14:39:29;;;;;;;;;;;10.40;99.90;;;;;;5016647;28;20339;-60
2023/03/26 14:42:01;;;;;;;;;;;10.40;99.90;;;;;;5046131;28;20271;-61
2023/03/26 14:44:29;;;;;;;;;;;10.50;99.90;;;;;;5038752;28;20362;-61